sensor_id;sensor_type;location;lat;lon;timestamp;pressure;altitude;pressure_sealevel;temperature;humidity
74678;BME280;67324;56.326;43.982;2023-05-16T00:01:15;101482.38;;;18.50;45.51
74678;BME280;67324;56.326;43.982;2023-05-16T00:03:41;101483.44;;;18.48;45.41
74678;BME280;67324;56.326;43.982;2023-05-16T00:06:08;101487.75;;;18.49;45.44
74678;BME280;67324;56.326;43.982;2023-05-16T00:08:34;101476.44;;;18.48;45.43
74678;BME280;67324;56.326;43.982;2023-05-16T00:11:00;101485.13;;;18.49;45.46
74678;BME280;67324;56.326;43.982;2023-05-16T00:13:27;101484.31;;;18.48;45.50
74678;BME280;67324;56.326;43.982;2023-05-16T00:15:54;101483.34;;;18.49;45.56
74678;BME280;67324;56.326;43.982;2023-05-16T00:18:21;101481.69;;;18.48;45.52
74678;BME280;67324;56.326;43.982;2023-05-16T00:20:48;101493.00;;;18.49;45.49
74678;BME280;67324;56.326;43.982;2023-05-16T00:23:16;101492.16;;;18.48;45.56
74678;BME280;67324;56.326;43.982;2023-05-16T00:25:42;101492.25;;;18.47;45.50
74678;BME280;67324;56.326;43.982;2023-05-16T00:28:09;101498.31;;;18.47;45.58
74678;BME280;67324;56.326;43.982;2023-05-16T00:30:36;101497.50;;;18.47;45.59
74678;BME280;67324;56.326;43.982;2023-05-16T00:33:02;101504.41;;;18.48;45.53
74678;BME280;67324;56.326;43.982;2023-05-16T00:35:29;101498.31;;;18.47;45.55
74678;BME280;67324;56.326;43.982;2023-05-16T00:37:55;101500.22;;;18.45;45.50
74678;BME280;67324;56.326;43.982;2023-05-16T00:40:21;101506.31;;;18.46;45.54
74678;BME280;67324;56.326;43.982;2023-05-16T00:42:47;101510.59;;;18.47;45.55
74678;BME280;67324;56.326;43.982;2023-05-16T00:45:14;101500.34;;;18.44;45.43
74678;BME280;67324;56.326;43.982;2023-05-16T00:47:40;101502.97;;;18.44;45.55
74678;BME280;67324;56.326;43.982;2023-05-16T00:50:06;101497.72;;;18.44;45.55
74678;BME280;67324;56.326;43.982;2023-05-16T00:52:33;101505.69;;;18.42;45.47
74678;BME280;67324;56.326;43.982;2023-05-16T00:55:03;101509.75;;;18.46;45.50
74678;BME280;67324;56.326;43.982;2023-05-16T00:57:31;101512.50;;;18.45;45.49
74678;BME280;67324;56.326;43.982;2023-05-16T00:59:58;101510.00;;;18.43;45.58
74678;BME280;67324;56.326;43.982;2023-05-16T01:02:24;101515.25;;;18.43;45.50
74678;BME280;67324;56.326;43.982;2023-05-16T01:04:53;101510.94;;;18.42;45.56
74678;BME280;67324;56.326;43.982;2023-05-16T01:07:19;101520.66;;;18.40;45.53
74678;BME280;67324;56.326;43.982;2023-05-16T01:09:46;101523.09;;;18.43;45.50
74678;BME280;67324;56.326;43.982;2023-05-16T01:20:57;101531.88;;;18.42;45.50
74678;BME280;67324;56.326;43.982;2023-05-16T01:23:33;101534.50;;;18.42;45.54
74678;BME280;67324;56.326;43.982;2023-05-16T01:26:13;101537.13;;;18.42;45.66
74678;BME280;67324;56.326;43.982;2023-05-16T01:28:40;101546.78;;;18.42;45.52
74678;BME280;67324;56.326;43.982;2023-05-16T01:31:07;101533.03;;;18.38;45.58
74678;BME280;67324;56.326;43.982;2023-05-16T01:33:33;101539.13;;;18.39;45.57
74678;BME280;67324;56.326;43.982;2023-05-16T01:39:00;101545.06;;;18.41;45.55
74678;BME280;67324;56.326;43.982;2023-05-16T01:41:57;101552.09;;;18.40;45.60
74678;BME280;67324;56.326;43.982;2023-05-16T01:44:34;101551.28;;;18.40;45.54
74678;BME280;67324;56.326;43.982;2023-05-16T01:47:02;101559.13;;;18.40;45.46
74678;BME280;67324;56.326;43.982;2023-05-16T01:49:35;101560.09;;;18.39;45.49
74678;BME280;67324;56.326;43.982;2023-05-16T01:52:09;101554.94;;;18.37;45.66
74678;BME280;67324;56.326;43.982;2023-05-16T01:54:37;101557.66;;;18.36;45.61
74678;BME280;67324;56.326;43.982;2023-05-16T01:57:05;101559.38;;;18.37;45.48
74678;BME280;67324;56.326;43.982;2023-05-16T01:59:33;101558.31;;;18.39;45.55
74678;BME280;67324;56.326;43.982;2023-05-16T02:01:59;101559.38;;;18.37;45.44
74678;BME280;67324;56.326;43.982;2023-05-16T02:04:25;101561.84;;;18.38;45.53
74678;BME280;67324;56.326;43.982;2023-05-16T02:06:51;101559.38;;;18.37;45.51
74678;BME280;67324;56.326;43.982;2023-05-16T02:09:17;101557.56;;;18.37;45.58
74678;BME280;67324;56.326;43.982;2023-05-16T02:11:43;101555.06;;;18.36;45.52
74678;BME280;67324;56.326;43.982;2023-05-16T02:14:11;101563.78;;;18.36;45.53
74678;BME280;67324;56.326;43.982;2023-05-16T02:16:37;101561.25;;;18.35;45.58
74678;BME280;67324;56.326;43.982;2023-05-16T02:19:03;101567.22;;;18.37;45.63
74678;BME280;67324;56.326;43.982;2023-05-16T02:21:49;101576.75;;;18.38;45.58
74678;BME280;67324;56.326;43.982;2023-05-16T02:24:16;101581.16;;;18.37;45.52
74678;BME280;67324;56.326;43.982;2023-05-16T02:27:00;101586.38;;;18.37;45.50
74678;BME280;67324;56.326;43.982;2023-05-16T02:29:26;101585.56;;;18.37;45.39
74678;BME280;67324;56.326;43.982;2023-05-16T02:31:52;101584.91;;;18.33;45.51
74678;BME280;67324;56.326;43.982;2023-05-16T02:34:18;101584.72;;;18.36;45.58
74678;BME280;67324;56.326;43.982;2023-05-16T02:36:46;101586.47;;;18.36;45.52
74678;BME280;67324;56.326;43.982;2023-05-16T02:39:12;101589.97;;;18.36;45.57
74678;BME280;67324;56.326;43.982;2023-05-16T02:41:38;101583.88;;;18.36;45.55
74678;BME280;67324;56.326;43.982;2023-05-16T02:44:04;101588.28;;;18.35;45.55
74678;BME280;67324;56.326;43.982;2023-05-16T02:46:48;101593.50;;;18.35;45.53
74678;BME280;67324;56.326;43.982;2023-05-16T02:49:14;101585.66;;;18.35;45.56
74678;BME280;67324;56.326;43.982;2023-05-16T02:51:40;101584.81;;;18.35;45.62
74678;BME280;67324;56.326;43.982;2023-05-16T02:54:06;101578.03;;;18.32;45.46
74678;BME280;67324;56.326;43.982;2023-05-16T02:56:34;101580.41;;;18.35;45.50
74678;BME280;67324;56.326;43.982;2023-05-16T02:59:00;101581.38;;;18.34;45.56
74678;BME280;67324;56.326;43.982;2023-05-16T03:01:26;101576.34;;;18.31;45.50
74678;BME280;67324;56.326;43.982;2023-05-16T03:03:52;101580.63;;;18.32;45.46
74678;BME280;67324;56.326;43.982;2023-05-16T03:06:18;101569.19;;;18.33;45.51
74678;BME280;67324;56.326;43.982;2023-05-16T03:08:44;101576.34;;;18.31;45.61
74678;BME280;67324;56.326;43.982;2023-05-16T03:11:10;101576.97;;;18.35;45.56
74678;BME280;67324;56.326;43.982;2023-05-16T03:13:36;101570.25;;;18.30;45.55
74678;BME280;67324;56.326;43.982;2023-05-16T03:16:02;101581.47;;;18.33;45.60
74678;BME280;67324;56.326;43.982;2023-05-16T03:18:29;101581.47;;;18.33;45.72
74678;BME280;67324;56.326;43.982;2023-05-16T03:20:55;101575.72;;;18.27;45.47
74678;BME280;67324;56.326;43.982;2023-05-16T03:23:23;101585.97;;;18.30;45.57
74678;BME280;67324;56.326;43.982;2023-05-16T03:25:49;101583.25;;;18.32;45.52
74678;BME280;67324;56.326;43.982;2023-05-16T03:28:19;101579.91;;;18.30;45.57
74678;BME280;67324;56.326;43.982;2023-05-16T03:30:45;101581.59;;;18.31;45.55
74678;BME280;67324;56.326;43.982;2023-05-16T03:33:11;101583.47;;;18.29;45.51
74678;BME280;67324;56.326;43.982;2023-05-16T03:35:37;101585.16;;;18.30;45.38
74678;BME280;67324;56.326;43.982;2023-05-16T03:38:03;101587.66;;;18.32;45.50
74678;BME280;67324;56.326;43.982;2023-05-16T03:40:29;101593.97;;;18.29;45.70
74678;BME280;67324;56.326;43.982;2023-05-16T03:42:55;101589.44;;;18.31;45.58
74678;BME280;67324;56.326;43.982;2023-05-16T03:45:22;101594.69;;;18.31;45.58
74678;BME280;67324;56.326;43.982;2023-05-16T03:47:48;101594.88;;;18.28;45.61
74678;BME280;67324;56.326;43.982;2023-05-16T03:50:15;101596.44;;;18.30;45.62
74678;BME280;67324;56.326;43.982;2023-05-16T03:52:41;101596.44;;;18.30;45.51
74678;BME280;67324;56.326;43.982;2023-05-16T03:55:07;101599.19;;;18.29;45.68
74678;BME280;67324;56.326;43.982;2023-05-16T03:57:52;101594.78;;;18.29;45.66
74678;BME280;67324;56.326;43.982;2023-05-16T04:00:36;101595.00;;;18.26;45.49
74678;BME280;67324;56.326;43.982;2023-05-16T04:03:02;101595.63;;;18.30;45.66
74678;BME280;67324;56.326;43.982;2023-05-16T04:05:29;101588.91;;;18.26;45.44
74678;BME280;67324;56.326;43.982;2023-05-16T04:07:55;101584.63;;;18.25;45.58
74678;BME280;67324;56.326;43.982;2023-05-16T04:10:21;101596.56;;;18.29;45.58
74678;BME280;67324;56.326;43.982;2023-05-16T04:12:47;101595.84;;;18.27;45.56
74678;BME280;67324;56.326;43.982;2023-05-16T04:15:13;101594.88;;;18.28;45.63
74678;BME280;67324;56.326;43.982;2023-05-16T04:17:39;101586.28;;;18.26;45.50
74678;BME280;67324;56.326;43.982;2023-05-16T04:20:05;101596.75;;;18.26;45.48
74678;BME280;67324;56.326;43.982;2023-05-16T04:22:32;101588.06;;;18.25;45.50
74678;BME280;67324;56.326;43.982;2023-05-16T04:24:58;101586.41;;;18.24;45.59
74678;BME280;67324;56.326;43.982;2023-05-16T04:27:24;101588.81;;;18.27;45.65
74678;BME280;67324;56.326;43.982;2023-05-16T04:29:51;101582.84;;;18.25;45.64
74678;BME280;67324;56.326;43.982;2023-05-16T04:32:17;101591.53;;;18.26;45.49
74678;BME280;67324;56.326;43.982;2023-05-16T04:34:44;101581.91;;;18.26;45.48
74678;BME280;67324;56.326;43.982;2023-05-16T04:37:11;101580.13;;;18.27;45.48
74678;BME280;67324;56.326;43.982;2023-05-16T04:39:37;101578.66;;;18.23;45.56
74678;BME280;67324;56.326;43.982;2023-05-16T04:42:03;101579.38;;;18.25;45.65
74678;BME280;67324;56.326;43.982;2023-05-16T04:44:29;101580.34;;;18.24;45.63
74678;BME280;67324;56.326;43.982;2023-05-16T04:46:55;101573.41;;;18.23;45.64
74678;BME280;67324;56.326;43.982;2023-05-16T04:49:21;101579.28;;;18.26;45.52
74678;BME280;67324;56.326;43.982;2023-05-16T04:51:48;101578.44;;;18.26;45.60
74678;BME280;67324;56.326;43.982;2023-05-16T04:54:14;101585.47;;;18.25;45.55
74678;BME280;67324;56.326;43.982;2023-05-16T04:56:40;101578.56;;;18.24;45.49
74678;BME280;67324;56.326;43.982;2023-05-16T04:59:06;101576.88;;;18.23;45.54
74678;BME280;67324;56.326;43.982;2023-05-16T05:01:32;101570.81;;;18.23;45.54
74678;BME280;67324;56.326;43.982;2023-05-16T05:03:58;101573.41;;;18.23;45.52
74678;BME280;67324;56.326;43.982;2023-05-16T05:06:24;101577.81;;;18.22;45.63
74678;BME280;67324;56.326;43.982;2023-05-16T05:08:50;101572.50;;;18.24;45.50
74678;BME280;67324;56.326;43.982;2023-05-16T05:11:16;101575.94;;;18.24;45.46
74678;BME280;67324;56.326;43.982;2023-05-16T05:13:42;101569.00;;;18.23;45.43
74678;BME280;67324;56.326;43.982;2023-05-16T05:16:08;101558.53;;;18.23;45.56
74678;BME280;67324;56.326;43.982;2023-05-16T05:18:34;101554.34;;;18.21;45.49
74678;BME280;67324;56.326;43.982;2023-05-16T05:21:00;101562.13;;;18.22;45.56
74678;BME280;67324;56.326;43.982;2023-05-16T05:23:28;101555.31;;;18.20;45.53
74678;BME280;67324;56.326;43.982;2023-05-16T05:25:54;101549.84;;;18.23;45.63
74678;BME280;67324;56.326;43.982;2023-05-16T05:28:20;101546.50;;;18.21;45.48
74678;BME280;67324;56.326;43.982;2023-05-16T05:30:46;101564.63;;;18.24;45.59
74678;BME280;67324;56.326;43.982;2023-05-16T05:33:16;101563.78;;;18.23;45.49
74678;BME280;67324;56.326;43.982;2023-05-16T05:35:43;101572.50;;;18.24;45.53
74678;BME280;67324;56.326;43.982;2023-05-16T05:38:09;101567.25;;;18.24;45.62
74678;BME280;67324;56.326;43.982;2023-05-16T05:40:35;101569.88;;;18.24;45.52
74678;BME280;67324;56.326;43.982;2023-05-16T05:43:01;101565.56;;;18.23;45.54
74678;BME280;67324;56.326;43.982;2023-05-16T05:45:27;101569.00;;;18.23;45.55
74678;BME280;67324;56.326;43.982;2023-05-16T05:47:53;101577.00;;;18.22;45.55
74678;BME280;67324;56.326;43.982;2023-05-16T05:50:19;101571.75;;;18.22;45.63
74678;BME280;67324;56.326;43.982;2023-05-16T05:52:45;101571.75;;;18.22;45.65
74678;BME280;67324;56.326;43.982;2023-05-16T05:55:10;101572.81;;;18.19;45.48
74678;BME280;67324;56.326;43.982;2023-05-16T05:57:36;101573.41;;;18.23;45.51
74678;BME280;67324;56.326;43.982;2023-05-16T06:00:03;101571.63;;;18.23;45.55
74678;BME280;67324;56.326;43.982;2023-05-16T06:02:34;101570.06;;;18.21;45.45
74678;BME280;67324;56.326;43.982;2023-05-16T06:05:00;101571.75;;;18.22;45.44
74678;BME280;67324;56.326;43.982;2023-05-16T06:07:31;101564.97;;;18.19;45.36
74678;BME280;67324;56.326;43.982;2023-05-16T06:09:57;101579.72;;;18.20;45.40
74678;BME280;67324;56.326;43.982;2023-05-16T06:12:24;101583.91;;;18.23;45.43
74678;BME280;67324;56.326;43.982;2023-05-16T06:14:50;101570.06;;;18.21;45.57
74678;BME280;67324;56.326;43.982;2023-05-16T06:17:15;101575.22;;;18.22;45.53
74678;BME280;67324;56.326;43.982;2023-05-16T06:19:41;101570.94;;;18.21;45.61
74678;BME280;67324;56.326;43.982;2023-05-16T06:22:07;101566.53;;;18.22;45.58
74678;BME280;67324;56.326;43.982;2023-05-16T06:24:33;101564.81;;;18.21;45.54
74678;BME280;67324;56.326;43.982;2023-05-16T06:26:59;101564.81;;;18.21;45.53
74678;BME280;67324;56.326;43.982;2023-05-16T06:29:25;101567.56;;;18.19;45.58
74678;BME280;67324;56.326;43.982;2023-05-16T06:31:51;101575.31;;;18.21;45.43
74678;BME280;67324;56.326;43.982;2023-05-16T06:34:17;101574.38;;;18.22;45.44
74678;BME280;67324;56.326;43.982;2023-05-16T06:36:43;101568.31;;;18.21;45.53
74678;BME280;67324;56.326;43.982;2023-05-16T06:39:09;101577.81;;;18.22;45.54
74678;BME280;67324;56.326;43.982;2023-05-16T06:41:35;101569.38;;;18.19;45.46
74678;BME280;67324;56.326;43.982;2023-05-16T06:44:02;101573.53;;;18.21;45.59
74678;BME280;67324;56.326;43.982;2023-05-16T06:46:29;101574.47;;;18.20;45.58
74678;BME280;67324;56.326;43.982;2023-05-16T06:48:55;101567.34;;;18.22;45.46
74678;BME280;67324;56.326;43.982;2023-05-16T06:51:21;101565.56;;;18.23;45.51
74678;BME280;67324;56.326;43.982;2023-05-16T06:53:47;101571.84;;;18.20;45.42
74678;BME280;67324;56.326;43.982;2023-05-16T06:56:13;101578.66;;;18.23;45.64
74678;BME280;67324;56.326;43.982;2023-05-16T06:58:39;101572.69;;;18.21;45.42
74678;BME280;67324;56.326;43.982;2023-05-16T07:01:05;101571.63;;;18.23;45.44
74678;BME280;67324;56.326;43.982;2023-05-16T07:03:31;101567.56;;;18.19;45.51
74678;BME280;67324;56.326;43.982;2023-05-16T07:05:57;101563.16;;;18.20;45.58
74678;BME280;67324;56.326;43.982;2023-05-16T07:08:24;101565.56;;;18.23;45.49
74678;BME280;67324;56.326;43.982;2023-05-16T07:10:50;101564.72;;;18.22;45.45
74678;BME280;67324;56.326;43.982;2023-05-16T07:13:16;101576.03;;;18.23;45.53
74678;BME280;67324;56.326;43.982;2023-05-16T07:15:42;101580.34;;;18.24;45.52
74678;BME280;67324;56.326;43.982;2023-05-16T07:18:08;101572.50;;;18.24;45.58
74678;BME280;67324;56.326;43.982;2023-05-16T07:20:34;101564.63;;;18.24;45.46
74678;BME280;67324;56.326;43.982;2023-05-16T07:23:00;101563.06;;;18.21;45.45
74678;BME280;67324;56.326;43.982;2023-05-16T07:25:26;101564.72;;;18.22;45.51
74678;BME280;67324;56.326;43.982;2023-05-16T07:27:52;101564.63;;;18.24;45.54
74678;BME280;67324;56.326;43.982;2023-05-16T07:30:18;101562.84;;;18.24;45.49
74678;BME280;67324;56.326;43.982;2023-05-16T07:32:46;101566.28;;;18.25;45.48
74678;BME280;67324;56.326;43.982;2023-05-16T07:35:12;101569.75;;;18.25;45.60
74678;BME280;67324;56.326;43.982;2023-05-16T07:37:38;101561.28;;;18.22;45.44
74678;BME280;67324;56.326;43.982;2023-05-16T07:40:07;101563.69;;;18.25;45.51
74678;BME280;67324;56.326;43.982;2023-05-16T07:42:33;101560.31;;;18.23;45.42
74678;BME280;67324;56.326;43.982;2023-05-16T07:44:59;101556.03;;;18.22;45.46
74678;BME280;67324;56.326;43.982;2023-05-16T07:47:27;101567.13;;;18.25;45.50
74678;BME280;67324;56.326;43.982;2023-05-16T07:49:53;101553.19;;;18.25;45.45
74678;BME280;67324;56.326;43.982;2023-05-16T07:52:19;101555.09;;;18.23;45.50
74678;BME280;67324;56.326;43.982;2023-05-16T07:54:46;101555.00;;;18.24;45.42
74678;BME280;67324;56.326;43.982;2023-05-16T07:57:15;101556.66;;;18.25;45.48
74678;BME280;67324;56.326;43.982;2023-05-16T07:59:42;101558.53;;;18.23;45.57
74678;BME280;67324;56.326;43.982;2023-05-16T08:02:09;101553.31;;;18.23;45.42
74678;BME280;67324;56.326;43.982;2023-05-16T08:04:35;101551.41;;;18.25;45.39
74678;BME280;67324;56.326;43.982;2023-05-16T08:07:02;101552.25;;;18.26;45.51
74678;BME280;67324;56.326;43.982;2023-05-16T08:09:28;101551.41;;;18.25;45.47
74678;BME280;67324;56.326;43.982;2023-05-16T08:11:53;101555.72;;;18.26;45.39
74678;BME280;67324;56.326;43.982;2023-05-16T08:14:19;101549.63;;;18.26;45.48
74678;BME280;67324;56.326;43.982;2023-05-16T08:16:45;101559.19;;;18.27;45.54
74678;BME280;67324;56.326;43.982;2023-05-16T08:19:12;101550.69;;;18.23;45.38
74678;BME280;67324;56.326;43.982;2023-05-16T08:21:38;101546.41;;;18.22;45.47
74678;BME280;67324;56.326;43.982;2023-05-16T08:24:05;101554.88;;;18.26;45.59
74678;BME280;67324;56.326;43.982;2023-05-16T08:26:31;101553.94;;;18.27;45.40
74678;BME280;67324;56.326;43.982;2023-05-16T08:28:57;101546.06;;;18.27;45.39
74678;BME280;67324;56.326;43.982;2023-05-16T08:31:23;101545.44;;;18.23;45.38
74678;BME280;67324;56.326;43.982;2023-05-16T08:34:08;101553.19;;;18.25;45.52
74678;BME280;67324;56.326;43.982;2023-05-16T08:36:37;101546.91;;;18.27;45.43
74678;BME280;67324;56.326;43.982;2023-05-16T08:39:04;101545.25;;;18.26;45.34
74678;BME280;67324;56.326;43.982;2023-05-16T08:41:30;101546.19;;;18.25;45.43
74678;BME280;67324;56.326;43.982;2023-05-16T08:43:56;101538.22;;;18.27;45.41
74678;BME280;67324;56.326;43.982;2023-05-16T08:46:22;101537.38;;;18.26;45.43
74678;BME280;67324;56.326;43.982;2023-05-16T08:48:52;101533.91;;;18.26;45.34
74678;BME280;67324;56.326;43.982;2023-05-16T08:51:20;101529.41;;;18.28;45.31
74678;BME280;67324;56.326;43.982;2023-05-16T08:54:01;101532.88;;;18.28;45.56
74678;BME280;67324;56.326;43.982;2023-05-16T08:56:28;101528.69;;;18.26;45.32
74678;BME280;67324;56.326;43.982;2023-05-16T08:58:54;101531.09;;;18.29;45.30
74678;BME280;67324;56.326;43.982;2023-05-16T09:01:22;101527.84;;;18.25;45.38
74678;BME280;67324;56.326;43.982;2023-05-16T09:04:08;101528.47;;;18.29;45.46
74678;BME280;67324;56.326;43.982;2023-05-16T09:06:35;101531.94;;;18.29;45.45
74678;BME280;67324;56.326;43.982;2023-05-16T09:09:01;101528.47;;;18.29;45.48
74678;BME280;67324;56.326;43.982;2023-05-16T09:11:28;101524.91;;;18.30;45.44
74678;BME280;67324;56.326;43.982;2023-05-16T09:13:54;101522.28;;;18.30;45.36
74678;BME280;67324;56.326;43.982;2023-05-16T09:16:20;101517.88;;;18.30;45.31
74678;BME280;67324;56.326;43.982;2023-05-16T09:18:56;101518.75;;;18.31;45.35
74678;BME280;67324;56.326;43.982;2023-05-16T09:21:26;101523.97;;;18.31;45.38
74678;BME280;67324;56.326;43.982;2023-05-16T09:23:53;101518.75;;;18.31;45.34
74678;BME280;67324;56.326;43.982;2023-05-16T09:26:18;101514.31;;;18.32;45.29
74678;BME280;67324;56.326;43.982;2023-05-16T09:28:45;101518.59;;;18.33;45.38
74678;BME280;67324;56.326;43.982;2023-05-16T09:31:24;101510.75;;;18.33;45.42
74678;BME280;67324;56.326;43.982;2023-05-16T09:33:52;101515.16;;;18.32;45.35
74678;BME280;67324;56.326;43.982;2023-05-16T09:36:18;101501.09;;;18.33;45.26
74678;BME280;67324;56.326;43.982;2023-05-16T09:38:45;101501.31;;;18.30;45.50
74678;BME280;67324;56.326;43.982;2023-05-16T09:41:11;101503.03;;;18.31;45.26
74678;BME280;67324;56.326;43.982;2023-05-16T09:43:38;101501.09;;;18.33;45.26
74678;BME280;67324;56.326;43.982;2023-05-16T09:46:05;101502.78;;;18.34;45.28
74678;BME280;67324;56.326;43.982;2023-05-16T09:48:31;101497.56;;;18.34;45.36
74678;BME280;67324;56.326;43.982;2023-05-16T09:50:58;101500.16;;;18.34;45.43
74678;BME280;67324;56.326;43.982;2023-05-16T09:53:30;101486.25;;;18.34;45.27
74678;BME280;67324;56.326;43.982;2023-05-16T09:56:04;101483.41;;;18.37;45.31
74678;BME280;67324;56.326;43.982;2023-05-16T09:58:34;101494.81;;;18.36;45.32
74678;BME280;67324;56.326;43.982;2023-05-16T10:01:01;101488.88;;;18.34;45.19
74678;BME280;67324;56.326;43.982;2023-05-16T10:03:28;101489.78;;;18.33;45.26
74678;BME280;67324;56.326;43.982;2023-05-16T10:05:55;101491.25;;;18.37;45.31
74678;BME280;67324;56.326;43.982;2023-05-16T10:08:23;101493.75;;;18.38;45.17
74678;BME280;67324;56.326;43.982;2023-05-16T10:10:52;101485.88;;;18.38;45.25
74678;BME280;67324;56.326;43.982;2023-05-16T10:13:25;101493.75;;;18.38;45.30
74678;BME280;67324;56.326;43.982;2023-05-16T10:15:55;101486.84;;;18.37;45.20
74678;BME280;67324;56.326;43.982;2023-05-16T10:18:23;101485.06;;;18.38;45.19
74678;BME280;67324;56.326;43.982;2023-05-16T10:20:53;101484.81;;;18.41;45.26
74678;BME280;67324;56.326;43.982;2023-05-16T10:23:20;101480.56;;;18.40;45.06
74678;BME280;67324;56.326;43.982;2023-05-16T10:25:48;101483.91;;;18.42;45.02
74678;BME280;67324;56.326;43.982;2023-05-16T10:28:15;101474.47;;;18.39;45.09
74678;BME280;67324;56.326;43.982;2023-05-16T10:30:43;101484.72;;;18.42;45.08
74678;BME280;67324;56.326;43.982;2023-05-16T10:33:14;101478.66;;;18.42;44.96
74678;BME280;67324;56.326;43.982;2023-05-16T10:35:43;101480.31;;;18.43;44.96
74678;BME280;67324;56.326;43.982;2023-05-16T10:38:29;101471.72;;;18.41;44.90
74678;BME280;67324;56.326;43.982;2023-05-16T10:40:55;101463.78;;;18.42;44.94
74678;BME280;67324;56.326;43.982;2023-05-16T10:43:26;101462.94;;;18.42;45.08
74678;BME280;67324;56.326;43.982;2023-05-16T10:46:06;101463.66;;;18.44;45.10
74678;BME280;67324;56.326;43.982;2023-05-16T10:48:36;101461.25;;;18.41;44.97
74678;BME280;67324;56.326;43.982;2023-05-16T10:51:32;101464.41;;;18.46;45.02
74678;BME280;67324;56.326;43.982;2023-05-16T10:54:05;101463.34;;;18.48;44.97
74678;BME280;67324;56.326;43.982;2023-05-16T10:56:33;101458.09;;;18.48;44.97
74678;BME280;67324;56.326;43.982;2023-05-16T10:59:00;101460.81;;;18.47;45.04
74678;BME280;67324;56.326;43.982;2023-05-16T11:01:33;101459.75;;;18.49;44.81
74678;BME280;67324;56.326;43.982;2023-05-16T11:04:11;101455.34;;;18.50;45.02
74678;BME280;67324;56.326;43.982;2023-05-16T11:06:56;101448.56;;;18.47;44.79
74678;BME280;67324;56.326;43.982;2023-05-16T11:09:25;101451.78;;;18.51;44.81
74678;BME280;67324;56.326;43.982;2023-05-16T11:11:53;101455.25;;;18.51;44.78
74678;BME280;67324;56.326;43.982;2023-05-16T11:14:26;101456.91;;;18.52;44.64
74678;BME280;67324;56.326;43.982;2023-05-16T11:19:50;101448.94;;;18.54;44.42
74678;BME280;67324;56.326;43.982;2023-05-16T11:25:05;101437.50;;;18.55;44.62
74678;BME280;67324;56.326;43.982;2023-05-16T11:27:41;101449.66;;;18.56;44.67
74678;BME280;67324;56.326;43.982;2023-05-16T11:32:41;101434.88;;;18.55;44.75
74678;BME280;67324;56.326;43.982;2023-05-16T11:35:09;101441.69;;;18.58;44.85
74678;BME280;67324;56.326;43.982;2023-05-16T11:37:36;101436.44;;;18.58;44.77
74678;BME280;67324;56.326;43.982;2023-05-16T11:40:05;101437.28;;;18.58;44.72
74678;BME280;67324;56.326;43.982;2023-05-16T11:42:38;101436.34;;;18.59;44.94
74678;BME280;67324;56.326;43.982;2023-05-16T11:45:09;101442.41;;;18.60;44.89
74678;BME280;67324;56.326;43.982;2023-05-16T11:47:38;101441.47;;;18.61;44.72
74678;BME280;67324;56.326;43.982;2023-05-16T11:50:17;101436.25;;;18.61;45.04
74678;BME280;67324;56.326;43.982;2023-05-16T11:52:48;101429.31;;;18.60;45.17
74678;BME280;67324;56.326;43.982;2023-05-16T11:55:20;101430.03;;;18.62;44.88
74678;BME280;67324;56.326;43.982;2023-05-16T11:57:50;101435.19;;;18.63;44.70
74678;BME280;67324;56.326;43.982;2023-05-16T12:00:18;101422.19;;;18.62;44.97
74678;BME280;67324;56.326;43.982;2023-05-16T12:02:45;101434.09;;;18.66;44.90
74678;BME280;67324;56.326;43.982;2023-05-16T12:05:16;101436.72;;;18.66;44.95
74678;BME280;67324;56.326;43.982;2023-05-16T12:07:43;101432.31;;;18.66;44.83
74678;BME280;67324;56.326;43.982;2023-05-16T12:10:11;101423.50;;;18.67;44.97
74678;BME280;67324;56.326;43.982;2023-05-16T12:12:39;101422.91;;;18.64;44.88
74678;BME280;67324;56.326;43.982;2023-05-16T12:15:07;101419.09;;;18.68;44.86
74678;BME280;67324;56.326;43.982;2023-05-16T12:17:34;101414.56;;;18.70;44.88
74678;BME280;67324;56.326;43.982;2023-05-16T12:20:02;101422.31;;;18.71;44.93
74678;BME280;67324;56.326;43.982;2023-05-16T12:22:32;101417.31;;;18.68;44.93
74678;BME280;67324;56.326;43.982;2023-05-16T12:24:59;101416.25;;;18.71;44.75
74678;BME280;67324;56.326;43.982;2023-05-16T12:27:25;101420.53;;;18.72;45.04
74678;BME280;67324;56.326;43.982;2023-05-16T12:29:52;101415.28;;;18.72;44.93
74678;BME280;67324;56.326;43.982;2023-05-16T12:32:19;101420.53;;;18.72;44.99
74678;BME280;67324;56.326;43.982;2023-05-16T12:34:49;101411.94;;;18.70;45.05
74678;BME280;67324;56.326;43.982;2023-05-16T12:37:20;101411.72;;;18.73;44.91
74678;BME280;67324;56.326;43.982;2023-05-16T12:39:46;101407.78;;;18.67;45.16
74678;BME280;67324;56.326;43.982;2023-05-16T12:42:13;101407.44;;;18.72;44.95
74678;BME280;67324;56.326;43.982;2023-05-16T12:44:39;101420.28;;;18.75;44.91
74678;BME280;67324;56.326;43.982;2023-05-16T12:47:10;101403.84;;;18.73;44.96
74678;BME280;67324;56.326;43.982;2023-05-16T12:49:47;101402.91;;;18.74;45.11
74678;BME280;67324;56.326;43.982;2023-05-16T12:52:20;101403.75;;;18.75;45.09
74678;BME280;67324;56.326;43.982;2023-05-16T12:54:47;101394.22;;;18.73;45.16
74678;BME280;67324;56.326;43.982;2023-05-16T12:57:13;101400.91;;;18.78;45.08
74678;BME280;67324;56.326;43.982;2023-05-16T12:59:39;101401.78;;;18.78;44.98
74678;BME280;67324;56.326;43.982;2023-05-16T13:02:06;101396.53;;;18.78;45.04
74678;BME280;67324;56.326;43.982;2023-05-16T13:04:32;101394.59;;;18.80;45.14